createdAt,value
2023-02-25T00:00:25.936Z,25.84
2023-02-25T00:01:25.895Z,25.80
2023-02-25T00:02:25.959Z,25.83
2023-02-25T00:03:25.892Z,25.84
2023-02-25T00:04:25.875Z,25.83
2023-02-25T00:05:25.834Z,25.84
2023-02-25T00:06:25.791Z,25.80
2023-02-25T00:07:25.789Z,25.81
2023-02-25T00:08:25.777Z,25.84
2023-02-25T00:09:25.767Z,25.83
2023-02-25T00:10:25.787Z,25.83
2023-02-25T00:11:25.716Z,25.81
2023-02-25T00:12:25.667Z,25.80
2023-02-25T00:13:25.656Z,25.80
2023-02-25T00:14:25.677Z,25.80
2023-02-25T00:15:25.625Z,25.80
2023-02-25T00:16:26.059Z,25.80
2023-02-25T00:17:25.553Z,25.80
2023-02-25T00:18:25.563Z,25.80
2023-02-25T00:19:25.525Z,25.78
2023-02-25T00:20:25.534Z,25.78
2023-02-25T00:21:25.475Z,25.78
2023-02-25T00:22:25.468Z,25.80
2023-02-25T00:23:25.413Z,25.78
2023-02-25T00:24:25.404Z,25.80
2023-02-25T00:25:25.395Z,25.80
2023-02-25T00:26:25.485Z,25.81
2023-02-25T00:27:25.310Z,25.77
2023-02-25T00:28:25.294Z,25.80
2023-02-25T00:29:25.271Z,25.78
2023-02-25T00:30:25.252Z,25.80
2023-02-25T00:31:25.353Z,25.78
2023-02-25T00:32:25.465Z,25.75
2023-02-25T00:33:25.190Z,25.77
2023-02-25T00:34:25.152Z,25.77
2023-02-25T00:35:25.153Z,25.80
2023-02-25T00:36:25.385Z,25.78
2023-02-25T00:37:25.089Z,25.80
2023-02-25T00:38:25.064Z,25.80
2023-02-25T00:39:25.046Z,25.78
2023-02-25T00:40:25.031Z,25.80
2023-02-25T00:41:25.016Z,25.77
2023-02-25T00:42:25.018Z,25.80
2023-02-25T00:43:24.988Z,25.80
2023-02-25T00:44:24.961Z,25.77
2023-02-25T00:45:24.986Z,25.77
2023-02-25T00:46:25.325Z,25.77
2023-02-25T00:47:24.895Z,25.78
2023-02-25T00:48:24.861Z,25.78
2023-02-25T00:49:32.138Z,25.77
2023-02-25T00:50:25.852Z,25.78
2023-02-25T00:51:24.816Z,25.77
2023-02-25T00:52:24.817Z,25.78
2023-02-25T00:53:24.776Z,25.78
2023-02-25T00:54:24.755Z,25.77
2023-02-25T00:55:24.751Z,25.77
2023-02-25T00:56:25.022Z,25.75
2023-02-25T00:57:24.709Z,25.78
2023-02-25T00:58:24.676Z,25.78
2023-02-25T00:59:24.688Z,25.77
2023-02-25T01:00:24.656Z,25.77
2023-02-25T01:01:24.646Z,25.75
2023-02-25T01:02:24.687Z,25.78
2023-02-25T01:03:24.596Z,25.78
2023-02-25T01:04:24.568Z,25.78
2023-02-25T01:05:24.556Z,25.77
2023-02-25T01:06:24.745Z,25.75
2023-02-25T01:07:24.522Z,25.78
2023-02-25T01:08:24.491Z,25.77
2023-02-25T01:09:24.470Z,25.77
2023-02-25T01:10:24.456Z,25.77
2023-02-25T01:11:24.452Z,25.75
2023-02-25T01:12:24.416Z,25.75
2023-02-25T01:13:24.370Z,25.75
2023-02-25T01:14:24.342Z,25.75
2023-02-25T01:15:24.553Z,25.75
2023-02-25T01:16:24.889Z,25.77
2023-02-25T01:17:24.295Z,25.75
2023-02-25T01:18:24.273Z,25.75
2023-02-25T01:19:24.241Z,25.73
2023-02-25T01:20:24.226Z,25.75
2023-02-25T01:21:24.203Z,25.75
2023-02-25T01:22:24.189Z,25.75
2023-02-25T01:23:24.144Z,25.77
2023-02-25T01:24:24.118Z,25.75
2023-02-25T01:25:24.089Z,25.74
2023-02-25T01:26:24.407Z,25.75
2023-02-25T01:27:24.037Z,25.75
2023-02-25T01:28:23.996Z,25.75
2023-02-25T01:29:23.988Z,25.75
2023-02-25T01:30:23.963Z,25.75
2023-02-25T01:31:24.052Z,25.73
2023-02-25T01:32:24.007Z,25.74
2023-02-25T01:33:23.893Z,25.71
2023-02-25T01:34:23.864Z,25.74
2023-02-25T01:35:23.865Z,25.74
2023-02-25T01:36:24.364Z,25.74
2023-02-25T01:37:23.794Z,25.73
2023-02-25T01:38:23.776Z,25.75
2023-02-25T01:39:25.799Z,25.71
2023-02-25T01:40:23.865Z,25.75
2023-02-25T01:41:23.857Z,25.74
2023-02-25T01:42:23.824Z,25.73
2023-02-25T01:43:23.801Z,25.74
2023-02-25T01:44:23.815Z,25.74
2023-02-25T01:45:23.772Z,25.74
2023-02-25T01:46:24.208Z,25.74
2023-02-25T01:47:23.760Z,25.75
2023-02-25T01:48:23.659Z,25.73
2023-02-25T01:49:23.673Z,25.74
2023-02-25T01:50:23.621Z,25.71
2023-02-25T01:51:23.629Z,25.77
2023-02-25T01:52:23.574Z,25.74
2023-02-25T01:53:23.585Z,25.74
2023-02-25T01:54:23.597Z,25.74
2023-02-25T01:55:23.646Z,25.74
2023-02-25T01:56:24.045Z,25.73
2023-02-25T01:57:23.666Z,25.73
2023-02-25T01:58:23.635Z,25.74
2023-02-25T01:59:23.588Z,25.74
2023-02-25T02:00:23.560Z,25.73
2023-02-25T02:01:23.546Z,25.74
2023-02-25T02:02:23.569Z,25.74
2023-02-25T02:03:23.464Z,25.74
2023-02-25T02:04:23.491Z,25.73
2023-02-25T02:05:23.513Z,25.71
2023-02-25T02:06:23.956Z,25.74
2023-02-25T02:07:23.558Z,25.73
2023-02-25T02:08:23.518Z,25.71
2023-02-25T02:09:23.484Z,25.73
2023-02-25T02:10:23.452Z,25.73
2023-02-25T02:11:23.434Z,25.71
2023-02-25T02:12:23.416Z,25.73
2023-02-25T02:13:23.416Z,25.74
2023-02-25T02:14:23.449Z,25.73
2023-02-25T02:15:23.478Z,25.74
2023-02-25T02:16:23.861Z,25.73
2023-02-25T02:17:23.501Z,25.73
2023-02-25T02:18:23.469Z,25.70
2023-02-25T02:19:23.472Z,25.71
2023-02-25T02:20:23.429Z,25.74
2023-02-25T02:21:23.401Z,25.70
2023-02-25T02:22:23.392Z,25.71
2023-02-25T02:23:23.376Z,25.73
2023-02-25T02:24:23.389Z,25.70
2023-02-25T02:25:23.423Z,25.73
2023-02-25T02:26:23.869Z,25.71
2023-02-25T02:27:23.445Z,25.71
2023-02-25T02:28:23.383Z,25.70
2023-02-25T02:29:23.362Z,25.70
2023-02-25T02:30:23.338Z,25.70
2023-02-25T02:31:23.364Z,25.70
2023-02-25T02:32:23.537Z,25.70
2023-02-25T02:33:23.250Z,25.71
2023-02-25T02:34:23.233Z,25.73
2023-02-25T02:35:23.215Z,25.71
2023-02-25T02:36:23.523Z,25.73
2023-02-25T02:37:23.154Z,25.71
2023-02-25T02:38:23.121Z,25.70
2023-02-25T02:39:23.087Z,25.70
2023-02-25T02:40:23.070Z,25.67
2023-02-25T02:41:23.031Z,25.70
2023-02-25T02:42:23.031Z,25.70
2023-02-25T02:43:22.970Z,25.67
2023-02-25T02:44:22.965Z,25.66
2023-02-25T02:45:23.049Z,25.66
2023-02-25T02:46:23.243Z,25.61
2023-02-25T02:47:22.889Z,25.60
2023-02-25T02:48:22.859Z,25.56
2023-02-25T02:49:22.898Z,25.56
2023-02-25T02:50:22.824Z,25.56
2023-02-25T02:51:22.811Z,25.51
2023-02-25T02:52:22.780Z,25.50
2023-02-25T02:53:22.742Z,25.47
2023-02-25T02:54:22.741Z,25.47
2023-02-25T02:55:22.712Z,25.41
2023-02-25T02:56:23.083Z,25.40
2023-02-25T02:57:22.674Z,25.39
2023-02-25T02:58:22.671Z,25.36
2023-02-25T02:59:22.734Z,25.34
2023-02-25T03:00:22.603Z,25.32
2023-02-25T03:01:22.645Z,25.29
2023-02-25T03:02:22.607Z,25.25
2023-02-25T03:03:22.539Z,25.23
2023-02-25T03:04:22.649Z,25.22
2023-02-25T03:05:22.501Z,25.19
2023-02-25T03:06:22.880Z,25.19
2023-02-25T03:07:22.465Z,25.16
2023-02-25T03:08:22.435Z,25.12
2023-02-25T03:09:22.431Z,25.11
2023-02-25T03:10:22.385Z,25.12
2023-02-25T03:11:22.366Z,25.08
2023-02-25T03:12:22.356Z,25.11
2023-02-25T03:13:22.367Z,25.08
2023-02-25T03:14:22.319Z,25.05
2023-02-25T03:15:22.280Z,25.04
2023-02-25T03:16:22.591Z,25.04
2023-02-25T03:17:22.263Z,25.02
2023-02-25T03:18:22.268Z,25.02
2023-02-25T03:19:22.224Z,24.99
2023-02-25T03:20:22.201Z,24.98
2023-02-25T03:21:22.195Z,24.95
2023-02-25T03:22:22.226Z,24.98
2023-02-25T03:23:22.171Z,24.95
2023-02-25T03:24:22.138Z,24.94
2023-02-25T03:25:22.124Z,24.92
2023-02-25T03:26:22.365Z,24.91
2023-02-25T03:27:22.106Z,24.89
2023-02-25T03:28:22.084Z,24.89
2023-02-25T03:29:22.058Z,24.87
2023-02-25T03:30:22.050Z,24.88
2023-02-25T03:31:22.060Z,24.87
2023-02-25T03:32:22.104Z,24.84
2023-02-25T03:33:22.052Z,24.81
2023-02-25T03:34:22.013Z,24.81
2023-02-25T03:35:22.004Z,24.80
2023-02-25T03:36:22.341Z,24.82
2023-02-25T03:37:21.995Z,24.78
2023-02-25T03:38:21.960Z,24.80
2023-02-25T03:39:21.953Z,24.77
2023-02-25T03:40:21.920Z,24.75
2023-02-25T03:41:21.936Z,24.77
2023-02-25T03:42:21.927Z,24.71
2023-02-25T03:43:21.921Z,24.72
2023-02-25T03:44:21.905Z,24.71
2023-02-25T03:45:21.868Z,24.71
2023-02-25T03:46:22.377Z,24.71
2023-02-25T03:47:21.841Z,24.67
2023-02-25T03:48:21.846Z,24.70
2023-02-25T03:49:21.850Z,24.67
2023-02-25T03:50:21.813Z,24.66
2023-02-25T03:51:21.785Z,24.64
2023-02-25T03:52:21.791Z,24.64
2023-02-25T03:53:21.778Z,24.64
2023-02-25T03:54:21.727Z,24.61
2023-02-25T03:55:21.710Z,24.60
2023-02-25T03:56:22.079Z,24.61
2023-02-25T03:57:21.683Z,24.60
2023-02-25T03:58:21.728Z,24.59
2023-02-25T03:59:21.675Z,24.59
2023-02-25T04:00:21.649Z,24.60
2023-02-25T04:01:21.662Z,24.60
2023-02-25T04:02:21.657Z,24.56
2023-02-25T04:03:21.641Z,24.57
2023-02-25T04:04:21.662Z,24.54
2023-02-25T04:05:21.601Z,24.54
2023-02-25T04:06:21.867Z,24.54
2023-02-25T04:07:21.570Z,24.54
2023-02-25T04:08:21.576Z,24.54
2023-02-25T04:09:21.586Z,24.52
2023-02-25T04:10:21.546Z,24.53
2023-02-25T04:11:21.511Z,24.50
2023-02-25T04:12:21.506Z,24.52
2023-02-25T04:13:21.506Z,24.50
2023-02-25T04:14:21.497Z,24.52
2023-02-25T04:15:21.481Z,24.49
2023-02-25T04:16:21.794Z,24.47
2023-02-25T04:17:21.451Z,24.47
2023-02-25T04:18:21.433Z,24.47
2023-02-25T04:19:21.443Z,24.49
2023-02-25T04:20:21.397Z,24.49
2023-02-25T04:21:21.395Z,24.47
2023-02-25T04:22:21.424Z,24.44
2023-02-25T04:23:21.410Z,24.46
2023-02-25T04:24:21.387Z,24.46
2023-02-25T04:25:21.377Z,24.46
2023-02-25T04:26:21.550Z,24.46
2023-02-25T04:27:21.350Z,24.44
2023-02-25T04:28:21.307Z,24.43
2023-02-25T04:29:21.332Z,24.42
2023-02-25T04:30:21.335Z,24.42
2023-02-25T04:31:21.437Z,24.43
2023-02-25T04:32:21.388Z,24.42
2023-02-25T04:33:21.314Z,24.39
2023-02-25T04:34:21.282Z,24.37
2023-02-25T04:35:21.279Z,24.39
2023-02-25T04:36:21.492Z,24.40
2023-02-25T04:37:21.248Z,24.37
2023-02-25T04:38:21.215Z,24.39
2023-02-25T04:39:21.195Z,24.37
2023-02-25T04:40:21.173Z,24.36
2023-02-25T04:41:21.140Z,24.37
2023-02-25T04:42:21.148Z,24.37
2023-02-25T04:43:21.120Z,24.36
2023-02-25T04:44:21.158Z,24.35
2023-02-25T04:45:21.066Z,24.35
2023-02-25T04:46:21.572Z,24.36
2023-02-25T04:47:21.033Z,24.33
2023-02-25T04:48:21.033Z,24.35
2023-02-25T04:49:20.998Z,24.30
2023-02-25T04:50:21.032Z,24.35
2023-02-25T04:51:20.959Z,24.32
2023-02-25T04:52:20.946Z,24.35
2023-02-25T04:53:20.938Z,24.33
2023-02-25T04:54:20.910Z,24.33
2023-02-25T04:55:20.915Z,24.32
2023-02-25T04:56:21.010Z,24.30
2023-02-25T04:57:20.858Z,24.30
2023-02-25T04:58:20.871Z,24.30
2023-02-25T04:59:20.851Z,24.27
2023-02-25T05:00:20.828Z,24.30
2023-02-25T05:01:20.865Z,24.25
2023-02-25T05:02:20.813Z,24.27
2023-02-25T05:03:20.819Z,24.27
2023-02-25T05:04:20.774Z,24.30
2023-02-25T05:05:20.764Z,24.27
2023-02-25T05:06:20.866Z,24.26
2023-02-25T05:07:20.734Z,24.26
2023-02-25T05:08:20.715Z,24.22
2023-02-25T05:09:20.693Z,24.23
2023-02-25T05:10:20.699Z,24.22
2023-02-25T05:11:20.670Z,24.23
2023-02-25T05:12:20.657Z,24.23
2023-02-25T05:13:20.631Z,24.23
2023-02-25T05:14:20.632Z,24.20
2023-02-25T05:15:20.603Z,24.20
2023-02-25T05:16:20.689Z,24.20
2023-02-25T05:17:20.565Z,24.20
2023-02-25T05:18:20.613Z,24.20
2023-02-25T05:19:20.554Z,24.19
2023-02-25T05:20:20.583Z,24.22
2023-02-25T05:21:20.528Z,24.18
2023-02-25T05:22:20.526Z,24.20
2023-02-25T05:23:20.526Z,24.20
2023-02-25T05:24:20.516Z,24.18
2023-02-25T05:25:20.494Z,24.19
2023-02-25T05:26:20.758Z,24.16
2023-02-25T05:27:20.460Z,24.18
2023-02-25T05:28:20.439Z,24.19
2023-02-25T05:29:20.436Z,24.20
2023-02-25T05:30:20.429Z,24.16
2023-02-25T05:31:20.529Z,24.18
2023-02-25T05:32:20.553Z,24.18
2023-02-25T05:33:20.379Z,24.15
2023-02-25T05:34:20.379Z,24.16
2023-02-25T05:35:20.390Z,24.15
2023-02-25T05:36:20.426Z,24.15
2023-02-25T05:37:20.318Z,24.13
2023-02-25T05:38:20.308Z,24.12
2023-02-25T05:39:20.276Z,24.13
2023-02-25T05:40:20.284Z,24.11
2023-02-25T05:41:20.277Z,24.12
2023-02-25T05:42:20.250Z,24.12
2023-02-25T05:43:20.266Z,24.12
2023-02-25T05:44:20.232Z,24.12
2023-02-25T05:45:20.232Z,24.12
2023-02-25T05:46:20.298Z,24.13
2023-02-25T05:47:20.193Z,24.11
2023-02-25T05:48:20.194Z,24.11
2023-02-25T05:49:20.192Z,24.09
2023-02-25T05:50:20.186Z,24.11
2023-02-25T05:51:20.142Z,24.08
2023-02-25T05:52:20.152Z,24.09
2023-02-25T05:53:20.114Z,24.05
2023-02-25T05:54:20.112Z,24.09
2023-02-25T05:55:20.118Z,24.08
2023-02-25T05:56:20.073Z,24.07
2023-02-25T05:57:20.082Z,24.05
2023-02-25T05:58:20.056Z,24.07
2023-02-25T05:59:20.042Z,24.05
2023-02-25T06:00:20.013Z,24.07
2023-02-25T06:01:20.020Z,24.05
2023-02-25T06:02:20.074Z,24.05
2023-02-25T06:03:20.035Z,24.05
2023-02-25T06:04:19.959Z,24.04
2023-02-25T06:05:19.951Z,24.04
2023-02-25T06:06:19.954Z,24.05
2023-02-25T06:07:19.925Z,24.04
2023-02-25T06:08:19.939Z,24.02
2023-02-25T06:09:19.904Z,24.05
2023-02-25T06:10:19.896Z,24.02
2023-02-25T06:11:19.906Z,24.01
2023-02-25T06:12:19.869Z,24.01
2023-02-25T06:13:19.858Z,23.99
2023-02-25T06:14:19.884Z,23.98
2023-02-25T06:15:19.844Z,24.01
2023-02-25T06:16:19.895Z,24.01
2023-02-25T06:17:19.806Z,23.99
2023-02-25T06:18:19.785Z,23.99
2023-02-25T06:19:19.782Z,23.98
2023-02-25T06:20:19.776Z,23.98
2023-02-25T06:21:19.808Z,23.95
2023-02-25T06:22:19.769Z,23.98
2023-02-25T06:23:19.745Z,23.97
2023-02-25T06:24:19.736Z,23.97
2023-02-25T06:25:19.731Z,23.98
2023-02-25T06:26:19.726Z,23.98
2023-02-25T06:27:19.673Z,23.97
2023-02-25T06:28:19.656Z,23.97
2023-02-25T06:29:19.673Z,23.95
2023-02-25T06:30:19.635Z,23.95
2023-02-25T06:31:19.722Z,23.95
2023-02-25T06:32:19.767Z,23.94
2023-02-25T06:33:19.560Z,23.97
2023-02-25T06:34:19.543Z,23.92
2023-02-25T06:35:19.539Z,23.95
2023-02-25T06:36:19.531Z,23.94
2023-02-25T06:37:19.502Z,23.94
2023-02-25T06:38:19.468Z,23.94
2023-02-25T06:39:19.491Z,23.92
2023-02-25T06:40:19.448Z,23.91
2023-02-25T06:41:19.454Z,23.94
2023-02-25T06:42:19.442Z,23.91
2023-02-25T06:43:19.436Z,23.92
2023-02-25T06:44:19.395Z,23.92
2023-02-25T06:45:19.368Z,23.91
2023-02-25T06:46:19.407Z,23.91
2023-02-25T06:47:19.346Z,23.91
2023-02-25T06:48:19.326Z,23.91
2023-02-25T06:49:19.319Z,23.89
2023-02-25T06:50:19.337Z,23.91
2023-02-25T06:51:19.286Z,23.89
2023-02-25T06:52:19.290Z,23.88
2023-02-25T06:53:19.254Z,23.91
2023-02-25T06:54:19.237Z,23.88
2023-02-25T06:55:19.217Z,23.89
2023-02-25T06:56:19.208Z,23.89
2023-02-25T06:57:19.187Z,23.89
2023-02-25T06:58:19.151Z,23.88
2023-02-25T06:59:19.161Z,23.88
2023-02-25T07:00:19.111Z,23.88
2023-02-25T07:01:19.172Z,23.88
2023-02-25T07:02:19.104Z,23.85
2023-02-25T07:03:19.089Z,23.88
2023-02-25T07:04:19.081Z,23.87
2023-02-25T07:05:19.041Z,23.87
2023-02-25T07:06:19.019Z,23.85
2023-02-25T07:07:19.037Z,23.85
2023-02-25T07:08:18.992Z,23.88
2023-02-25T07:09:18.968Z,23.87
2023-02-25T07:10:18.962Z,23.84
2023-02-25T07:11:18.926Z,23.87
2023-02-25T07:12:18.918Z,23.85
2023-02-25T07:13:18.886Z,23.85
2023-02-25T07:14:18.869Z,23.85
2023-02-25T07:15:18.841Z,23.84
2023-02-25T07:16:18.994Z,23.85
2023-02-25T07:17:18.813Z,23.85
2023-02-25T07:18:18.800Z,23.84
2023-02-25T07:19:18.767Z,23.85
2023-02-25T07:20:18.760Z,23.84
2023-02-25T07:21:18.758Z,23.84
2023-02-25T07:22:18.746Z,23.87
2023-02-25T07:23:18.720Z,23.82
2023-02-25T07:24:18.704Z,23.84
2023-02-25T07:25:18.745Z,23.84
2023-02-25T07:26:18.671Z,23.84
2023-02-25T07:27:18.674Z,23.84
2023-02-25T07:28:18.626Z,23.84
2023-02-25T07:29:18.614Z,23.84
2023-02-25T07:30:18.586Z,23.88
2023-02-25T07:31:18.781Z,23.85
2023-02-25T07:32:18.820Z,23.87
2023-02-25T07:33:18.562Z,23.85
2023-02-25T07:34:18.529Z,23.85
2023-02-25T07:35:18.533Z,23.87
2023-02-25T07:36:18.496Z,23.85
2023-02-25T07:37:18.474Z,23.87
2023-02-25T07:38:18.473Z,23.85
2023-02-25T07:39:18.460Z,23.84
2023-02-25T07:40:18.438Z,23.87
2023-02-25T07:41:18.442Z,23.85
2023-02-25T07:42:18.404Z,23.84
2023-02-25T07:43:18.429Z,23.87
2023-02-25T07:44:18.401Z,23.85
2023-02-25T07:45:18.378Z,23.85
2023-02-25T07:46:18.412Z,23.85
2023-02-25T07:47:18.350Z,23.88
2023-02-25T07:48:18.385Z,23.85
2023-02-25T07:49:18.316Z,23.87
2023-02-25T07:50:18.323Z,23.85
2023-02-25T07:51:18.312Z,23.84
2023-02-25T07:52:18.281Z,23.84
2023-02-25T07:53:18.281Z,23.84
2023-02-25T07:54:18.256Z,23.85
2023-02-25T07:55:18.254Z,23.84
2023-02-25T07:56:18.236Z,23.87
2023-02-25T07:57:18.209Z,23.85
2023-02-25T07:58:18.249Z,23.85
2023-02-25T07:59:18.222Z,23.84
2023-02-25T08:00:18.193Z,23.82
2023-02-25T08:01:18.202Z,23.85
2023-02-25T08:02:18.159Z,23.84
2023-02-25T08:03:18.165Z,23.82
2023-02-25T08:04:18.190Z,23.82
2023-02-25T08:05:18.121Z,23.82
2023-02-25T08:06:18.127Z,23.87
2023-02-25T08:07:18.098Z,23.84
2023-02-25T08:08:18.148Z,23.84
2023-02-25T08:09:18.105Z,23.84
2023-02-25T08:10:18.091Z,23.81
2023-02-25T08:11:18.086Z,23.82
2023-02-25T08:12:18.062Z,23.85
2023-02-25T08:13:18.087Z,23.82
2023-02-25T08:14:18.058Z,23.84
2023-02-25T08:15:18.068Z,23.85
2023-02-25T08:16:18.144Z,23.84
2023-02-25T08:17:18.024Z,23.85
2023-02-25T08:18:18.067Z,23.84
2023-02-25T08:19:18.014Z,23.85
2023-02-25T08:20:18.012Z,23.84
2023-02-25T08:21:18.095Z,23.85
2023-02-25T08:22:17.991Z,23.87
2023-02-25T08:23:17.992Z,23.85
2023-02-25T08:24:17.953Z,23.84
2023-02-25T08:25:17.960Z,23.85
2023-02-25T08:26:17.959Z,23.87
2023-02-25T08:27:17.933Z,23.88
2023-02-25T08:28:17.913Z,23.84
2023-02-25T08:29:17.922Z,23.85
2023-02-25T08:30:17.890Z,23.87
2023-02-25T08:31:18.005Z,23.87
2023-02-25T08:32:17.968Z,23.85
2023-02-25T08:33:17.831Z,23.84
2023-02-25T08:34:17.832Z,23.82
2023-02-25T08:35:17.814Z,23.85
2023-02-25T08:36:17.818Z,23.87
2023-02-25T08:37:17.766Z,23.85
2023-02-25T08:38:17.770Z,23.88
2023-02-25T08:39:17.739Z,23.85
2023-02-25T08:40:19.877Z,23.88
2023-02-25T08:41:17.708Z,23.87
2023-02-25T08:42:17.683Z,23.89
2023-02-25T08:43:17.676Z,23.89
2023-02-25T08:44:17.679Z,23.92
2023-02-25T08:45:17.654Z,23.95
2023-02-25T08:46:19.933Z,23.92
2023-02-25T08:47:17.610Z,23.97
2023-02-25T08:48:17.612Z,23.98
2023-02-25T08:49:17.593Z,23.99
2023-02-25T08:50:17.581Z,24.04
2023-02-25T08:51:17.544Z,24.05
2023-02-25T08:52:17.518Z,24.08
2023-02-25T08:53:17.512Z,24.09
2023-02-25T08:54:17.515Z,24.11
2023-02-25T08:55:17.484Z,24.12
2023-02-25T08:56:17.481Z,24.13
2023-02-25T08:57:17.464Z,24.19
2023-02-25T08:58:17.448Z,24.20
2023-02-25T08:59:17.466Z,24.20
2023-02-25T09:00:17.435Z,24.23
2023-02-25T09:01:17.465Z,24.25
2023-02-25T09:02:17.386Z,24.27
2023-02-25T09:03:17.399Z,24.29
2023-02-25T09:04:17.441Z,24.30
2023-02-25T09:05:19.599Z,24.33
2023-02-25T09:06:17.323Z,24.36
2023-02-25T09:07:17.344Z,24.37
2023-02-25T09:08:17.294Z,24.39
2023-02-25T09:09:17.312Z,24.43
2023-02-25T09:10:17.255Z,24.43
2023-02-25T09:11:17.272Z,24.43
2023-02-25T09:12:17.214Z,24.46
2023-02-25T09:13:17.225Z,24.47
2023-02-25T09:14:17.228Z,24.47
2023-02-25T09:15:17.162Z,24.52
2023-02-25T09:16:19.861Z,24.50
2023-02-25T09:17:17.132Z,24.56
2023-02-25T09:18:17.112Z,24.56
2023-02-25T09:19:17.109Z,24.56
2023-02-25T09:20:17.108Z,24.57
2023-02-25T09:21:17.076Z,24.61
2023-02-25T09:22:17.066Z,24.66
2023-02-25T09:23:17.035Z,24.66
2023-02-25T09:24:17.005Z,24.67
2023-02-25T09:25:17.004Z,24.70
2023-02-25T09:26:16.987Z,24.67
2023-02-25T09:27:16.950Z,24.68
2023-02-25T09:28:16.924Z,24.71
2023-02-25T09:29:16.911Z,24.74
2023-02-25T09:30:16.921Z,24.74
2023-02-25T09:31:17.019Z,24.74
2023-02-25T09:32:16.972Z,24.77
2023-02-25T09:33:16.845Z,24.81
2023-02-25T09:34:16.849Z,24.82
2023-02-25T09:35:16.845Z,24.84
2023-02-25T09:36:16.797Z,24.84
2023-02-25T09:37:16.763Z,24.87
2023-02-25T09:38:16.772Z,24.85
2023-02-25T09:39:16.734Z,24.87
2023-02-25T09:40:16.720Z,24.89
2023-02-25T09:41:16.689Z,24.92
2023-02-25T09:42:16.666Z,24.89
2023-02-25T09:43:16.643Z,24.94
2023-02-25T09:44:16.638Z,24.94
2023-02-25T09:45:16.630Z,24.97
2023-02-25T09:46:16.651Z,24.98
2023-02-25T09:47:16.612Z,24.99
2023-02-25T09:48:16.567Z,25.01
2023-02-25T09:49:16.545Z,24.99
2023-02-25T09:50:16.539Z,25.01
2023-02-25T09:51:16.492Z,25.01
2023-02-25T09:52:16.474Z,25.05
2023-02-25T09:53:16.457Z,25.04
2023-02-25T09:54:16.424Z,25.05
2023-02-25T09:55:16.419Z,25.09
2023-02-25T09:56:16.381Z,25.09
2023-02-25T09:57:16.369Z,25.15
2023-02-25T09:58:16.358Z,25.16
2023-02-25T09:59:16.343Z,25.15
2023-02-25T10:00:16.333Z,25.18
2023-02-25T10:01:16.297Z,25.16
2023-02-25T10:02:16.425Z,25.19
2023-02-25T10:03:16.335Z,25.22
2023-02-25T10:04:16.217Z,25.22
2023-02-25T10:05:16.239Z,25.25
2023-02-25T10:06:16.193Z,25.23
2023-02-25T10:07:16.191Z,25.25
2023-02-25T10:08:16.151Z,25.25
2023-02-25T10:09:16.149Z,25.25
2023-02-25T10:10:16.127Z,25.26
2023-02-25T10:11:16.144Z,25.28
2023-02-25T10:12:16.091Z,25.28
2023-02-25T10:13:16.111Z,25.30
2023-02-25T10:14:16.050Z,25.29
2023-02-25T10:15:16.044Z,25.32
2023-02-25T10:16:16.086Z,25.32
2023-02-25T10:17:15.990Z,25.34
2023-02-25T10:18:15.960Z,25.34
2023-02-25T10:19:15.962Z,25.34
2023-02-25T10:20:15.920Z,25.39
2023-02-25T10:21:15.927Z,25.36
2023-02-25T10:22:15.885Z,25.40
2023-02-25T10:23:15.845Z,25.40
2023-02-25T10:24:15.830Z,25.43
2023-02-25T10:25:15.809Z,25.46
2023-02-25T10:26:15.804Z,25.49
2023-02-25T10:27:15.783Z,25.44
2023-02-25T10:29:15.748Z,25.47
2023-02-25T11:56:13.695Z,26.15
2023-02-25T11:57:13.709Z,26.13
2023-02-25T11:58:13.677Z,26.15
2023-02-25T11:59:13.635Z,26.13
2023-02-25T12:00:13.628Z,26.13
2023-02-25T12:01:13.592Z,26.13
2023-02-25T12:02:13.600Z,26.13
2023-02-25T12:03:13.535Z,26.11
2023-02-25T12:04:13.524Z,26.11
2023-02-25T12:05:13.505Z,26.09
2023-02-25T12:06:13.488Z,26.08
2023-02-25T12:07:13.500Z,26.11
2023-02-25T12:08:14.377Z,26.11
2023-02-25T12:09:13.443Z,26.12
2023-02-25T12:10:13.401Z,26.11
2023-02-25T12:11:13.394Z,26.09
2023-02-25T12:12:13.414Z,26.11
2023-02-25T12:13:13.352Z,26.09
2023-02-25T12:14:13.324Z,26.12
2023-02-25T12:15:13.322Z,26.12
2023-02-25T12:16:13.339Z,26.09
2023-02-25T12:17:13.273Z,26.11
2023-02-25T12:18:13.249Z,26.09
2023-02-25T12:19:13.238Z,26.09
2023-02-25T12:20:13.232Z,26.06
2023-02-25T12:21:13.192Z,26.08
2023-02-25T12:22:13.208Z,26.08
2023-02-25T12:23:13.172Z,26.06
2023-02-25T12:24:13.151Z,26.05
2023-02-25T12:25:13.112Z,26.02
2023-02-25T12:26:13.129Z,26.02
2023-02-25T12:27:13.085Z,26.03
2023-02-25T12:28:13.054Z,26.03
2023-02-25T12:29:13.047Z,26.01
2023-02-25T12:30:13.015Z,26.03
2023-02-25T12:31:13.058Z,26.02
2023-02-25T12:32:13.019Z,26.01
2023-02-25T12:33:12.965Z,26.02
2023-02-25T12:34:12.946Z,26.02
2023-02-25T12:35:12.904Z,25.99
2023-02-25T12:36:12.894Z,25.98
2023-02-25T12:37:12.851Z,26.01
2023-02-25T12:38:12.847Z,25.96
2023-02-25T12:39:12.812Z,25.98
2023-02-25T12:40:12.771Z,26.01
2023-02-25T12:41:12.760Z,25.98
2023-02-25T12:42:12.720Z,26.01
2023-02-25T12:43:12.729Z,25.96
2023-02-25T12:44:12.692Z,26.01
2023-02-25T12:45:12.647Z,26.02
2023-02-25T12:46:12.660Z,26.01
2023-02-25T12:47:12.591Z,26.01
2023-02-25T12:48:12.574Z,26.01
2023-02-25T12:49:12.537Z,26.03
2023-02-25T12:50:12.523Z,25.98
2023-02-25T12:51:12.503Z,26.02
2023-02-25T12:52:12.472Z,26.01
2023-02-25T12:53:12.477Z,25.99
2023-02-25T12:54:12.424Z,26.01
2023-02-25T12:55:12.385Z,25.98
2023-02-25T12:56:12.359Z,25.98
2023-02-25T12:57:12.335Z,25.99
2023-02-25T12:58:12.321Z,25.99
2023-02-25T12:59:12.278Z,25.99
2023-02-25T13:00:12.250Z,25.99
2023-02-25T13:01:12.260Z,25.99
2023-02-25T13:02:12.167Z,25.99
2023-02-25T13:03:12.158Z,26.01
2023-02-25T13:04:12.185Z,26.01
2023-02-25T13:05:12.078Z,25.99
2023-02-25T13:06:12.044Z,26.01
2023-02-25T13:07:12.025Z,26.02
2023-02-25T13:08:12.020Z,26.02
2023-02-25T13:09:11.977Z,26.02
2023-02-25T13:10:11.916Z,26.02
2023-02-25T13:11:11.871Z,26.01
2023-02-25T13:12:12.614Z,26.03
2023-02-25T13:13:11.824Z,25.99
2023-02-25T13:14:11.791Z,26.03
2023-02-25T13:15:11.732Z,25.99
2023-02-25T13:16:11.727Z,26.01
2023-02-25T13:17:11.671Z,26.02
2023-02-25T13:18:11.671Z,26.01
2023-02-25T13:19:11.627Z,25.99
2023-02-25T13:20:11.604Z,25.99
2023-02-25T13:21:12.054Z,25.99
2023-02-25T13:22:11.536Z,26.01
2023-02-25T13:23:11.496Z,26.01
2023-02-25T13:24:11.506Z,25.99
2023-02-25T13:25:11.426Z,25.99
2023-02-25T13:26:11.419Z,25.98
2023-02-25T13:27:11.390Z,25.99
2023-02-25T13:28:11.348Z,25.99
2023-02-25T13:29:11.360Z,26.02
2023-02-25T13:30:11.429Z,26.01
2023-02-25T13:31:11.285Z,26.01
2023-02-25T13:32:11.377Z,25.99
2023-02-25T13:33:11.251Z,25.99
2023-02-25T13:34:11.259Z,26.01
2023-02-25T13:35:11.190Z,26.01
2023-02-25T13:36:11.184Z,25.99
2023-02-25T13:37:11.146Z,26.02
2023-02-25T13:38:11.106Z,26.01
2023-02-25T13:39:11.113Z,26.01
2023-02-25T13:40:11.155Z,26.01
2023-02-25T13:41:11.064Z,26.01
2023-02-25T13:42:11.045Z,25.99
2023-02-25T13:43:11.027Z,25.99
2023-02-25T13:44:11.041Z,25.99
2023-02-25T13:45:10.971Z,26.01
2023-02-25T13:46:11.008Z,25.99
2023-02-25T13:47:10.948Z,25.96
2023-02-25T13:48:10.925Z,25.99
2023-02-25T13:49:10.946Z,25.98
2023-02-25T13:50:10.869Z,25.96
2023-02-25T13:51:10.869Z,25.98
2023-02-25T13:52:10.830Z,25.98
2023-02-25T13:53:10.981Z,25.98
2023-02-25T13:54:10.790Z,25.96
2023-02-25T13:55:10.757Z,25.98
2023-02-25T13:56:10.750Z,25.95
2023-02-25T13:57:10.729Z,25.98
2023-02-25T13:58:10.689Z,25.95
2023-02-25T13:59:10.655Z,25.96
2023-02-25T14:00:10.619Z,25.95
2023-02-25T14:01:10.621Z,25.95
2023-02-25T14:02:10.627Z,25.96
2023-02-25T14:03:10.570Z,25.95
2023-02-25T14:04:10.538Z,25.96
2023-02-25T14:05:10.542Z,25.95
2023-02-25T14:06:10.492Z,25.95
2023-02-25T14:07:10.476Z,25.91
2023-02-25T14:08:10.465Z,25.95
2023-02-25T14:09:10.436Z,25.91
2023-02-25T14:10:10.461Z,25.95
2023-02-25T14:11:10.411Z,25.94
2023-02-25T14:12:13.010Z,25.94
2023-02-25T14:13:10.321Z,25.92
2023-02-25T14:14:10.317Z,25.94
2023-02-25T14:15:10.296Z,25.91
2023-02-25T14:16:10.297Z,25.89
2023-02-25T14:17:10.260Z,25.94
2023-02-25T14:18:10.247Z,25.92
2023-02-25T14:19:10.175Z,25.94